aviador You're here:

K1S5 Decoded Metar

in
Report Time2017-09-21 19:15:00
UTC Time2017-09-21 19:34:37
Flight Rules vfr VFR
WindCalm
Visibility9999 m
Phenomena:N/A
Clouds:Scattered 060 Hf
Overcast 080 Hf
Expected CloudBase > 3,600 ft AGL from Temp-Dew spread
Ceiling8,000 ft
Temp14°C
Dew Point05°C (55% RH)
AAT12.9°C
QNH1012 hPa
Raw Report
METAR K1S5 211915Z AUTO 00000KT 10SM SCT060 OVC080 14/05 A2989 RMK
AO2 T01380049=

Extra information for K1S5:More info

Social comments